Time;durP1;ratioP1;P1;durP2;ratioP2;P2;SDS_P1;SDS_P2;PMS_P1;PMS_P2;Temp;Humidity;BMP_temperature;BMP_pressure;BME280_temperature;BME280_humidity;BME280_pressure;Samples;Min_cycle;Max_cycle;Signal;HPM_P1;HPM_P2
2024/03/27 00:00:11;;;;;;;18.40;13.60;;;;;;;6.37;84.85;97367.47;109607;1250;59829;-79
2024/03/27 00:02:57;;;;;;;21.40;14.40;;;;;;;6.36;85.19;97364.59;109655;1250;60239;-79
2024/03/27 00:05:24;;;;;;;20.80;14.70;;;;;;;6.34;85.51;97363.67;109336;1250;64165;-78
2024/03/27 00:07:50;;;;;;;21.90;14.90;;;;;;;6.31;85.67;97360.23;109624;1250;59721;-79
2024/03/27 00:10:16;;;;;;;20.90;13.90;;;;;;;6.27;86.14;97354.35;109618;1250;59820;-78
2024/03/27 00:12:43;;;;;;;20.00;14.30;;;;;;;6.22;86.44;97348.00;109610;1250;59836;-79
2024/03/27 00:15:09;;;;;;;18.60;14.70;;;;;;;6.20;86.77;97343.41;109347;1250;59828;-78
2024/03/27 00:17:36;;;;;;;17.50;13.80;;;;;;;6.20;86.88;97338.84;109592;1250;59814;-78
2024/03/27 00:20:02;;;;;;;20.40;13.50;;;;;;;6.18;87.15;97332.27;109613;1250;59790;-79
2024/03/27 00:22:29;;;;;;;20.60;13.70;;;;;;;6.16;87.32;97327.80;109321;1250;59820;-78
2024/03/27 00:24:55;;;;;;;19.50;13.90;;;;;;;6.16;87.57;97326.08;109656;1250;59782;-79
2024/03/27 00:27:22;;;;;;;19.70;13.80;;;;;;;6.14;87.85;97317.23;109617;1250;60081;-78
2024/03/27 00:29:50;;;;;;;18.30;13.70;;;;;;;6.13;88.14;97310.41;109302;1250;60188;-80
2024/03/27 00:32:16;;;;;;;19.70;13.60;;;;;;;6.12;88.50;97307.17;109606;1250;59899;-79
2024/03/27 00:34:43;;;;;;;22.80;14.60;;;;;;;6.10;88.81;97298.83;109650;1250;59854;-75
2024/03/27 00:37:09;;;;;;;21.70;14.60;;;;;;;6.09;88.93;97294.48;109626;1250;59782;-79
2024/03/27 00:39:36;;;;;;;19.20;14.30;;;;;;;6.08;89.12;97287.34;109634;1250;59720;-79
2024/03/27 00:42:02;;;;;;;19.80;13.90;;;;;;;6.06;89.39;97286.05;109568;1250;59698;-79
2024/03/27 00:44:29;;;;;;;15.80;12.40;;;;;;;6.06;89.24;97279.41;109278;1250;60098;-80
2024/03/27 00:46:55;;;;;;;17.40;11.80;;;;;;;6.09;88.95;97277.27;109626;1250;59741;-78
2024/03/27 00:49:22;;;;;;;16.10;11.60;;;;;;;6.09;88.79;97274.41;109613;1250;59821;-78
2024/03/27 00:51:48;;;;;;;15.40;11.40;;;;;;;6.08;88.61;97271.71;109596;1250;59947;-78
2024/03/27 00:54:14;;;;;;;18.10;11.20;;;;;;;6.09;88.24;97263.46;109610;1250;59940;-78
2024/03/27 00:56:42;;;;;;;16.70;10.30;;;;;;;6.13;87.71;97256.27;109295;1250;59853;-77
2024/03/27 00:59:08;;;;;;;14.30;10.50;;;;;;;6.21;87.13;97248.44;109653;1250;59780;-76
2024/03/27 01:01:34;;;;;;;15.10;9.40;;;;;;;6.28;86.65;97243.34;109610;1250;60120;-78
2024/03/27 01:04:01;;;;;;;14.20;10.10;;;;;;;6.32;86.24;97241.45;109450;1250;60104;-79
2024/03/27 01:06:27;;;;;;;15.60;10.60;;;;;;;6.35;85.60;97241.56;109576;1250;59877;-79
2024/03/27 01:08:53;;;;;;;16.20;9.30;;;;;;;6.40;85.07;97234.80;109602;1250;59834;-79
2024/03/27 01:11:19;;;;;;;15.00;9.50;;;;;;;6.44;84.55;97229.72;109693;1250;59820;-78
2024/03/27 01:13:46;;;;;;;13.60;9.10;;;;;;;6.48;84.38;97223.27;109597;1250;59891;-76
2024/03/27 01:16:12;;;;;;;12.80;8.50;;;;;;;6.48;83.88;97215.52;109612;1250;59831;-79
2024/03/27 01:18:40;;;;;;;13.90;9.20;;;;;;;6.51;83.62;97215.64;109628;1250;59972;-78
2024/03/27 01:21:06;;;;;;;12.00;9.20;;;;;;;6.54;83.53;97205.26;109628;1250;59721;-78
2024/03/27 01:23:33;;;;;;;12.00;9.20;;;;;;;6.55;83.47;97198.48;109608;1250;59852;-79
2024/03/27 01:26:05;;;;;;;13.10;8.70;;;;;;;6.55;83.41;97192.82;109657;1250;59740;-79
2024/03/27 01:28:31;;;;;;;14.20;9.40;;;;;;;6.52;83.70;97185.31;109473;1250;60405;-79
2024/03/27 01:30:58;;;;;;;13.90;8.90;;;;;;;6.46;84.01;97183.71;109646;1250;59870;-79
2024/03/27 01:33:24;;;;;;;11.10;8.50;;;;;;;6.38;84.38;97183.85;109637;1250;59754;-79
2024/03/27 01:35:51;;;;;;;13.00;8.20;;;;;;;6.31;84.09;97178.73;109623;1250;59821;-79
2024/03/27 01:38:17;;;;;;;9.80;5.70;;;;;;;6.32;83.03;97184.06;109627;1250;60049;-78
2024/03/27 01:40:43;;;;;;;11.20;5.10;;;;;;;6.41;82.28;97183.24;109672;1250;60215;-78
2024/03/27 01:43:10;;;;;;;5.00;4.00;;;;;;;6.50;81.31;97187.83;109617;1250;60095;-78
2024/03/27 01:45:36;;;;;;;3.90;3.20;;;;;;;6.63;79.92;97184.30;109664;1250;59805;-79
2024/03/27 01:48:03;;;;;;;3.80;3.00;;;;;;;6.82;79.04;97171.09;109663;1250;59795;-80
2024/03/27 01:50:30;;;;;;;3.70;2.80;;;;;;;7.01;77.86;97172.94;109672;1250;59829;-79
2024/03/27 01:52:57;;;;;;;2.90;2.30;;;;;;;7.16;76.87;97171.05;109685;1250;60778;-79
2024/03/27 01:55:24;;;;;;;2.70;2.20;;;;;;;7.29;76.22;97172.35;109548;1250;62506;-77
2024/03/27 01:57:51;;;;;;;2.90;2.20;;;;;;;7.38;75.56;97166.64;109659;1250;60122;-78
2024/03/27 02:00:18;;;;;;;4.70;3.00;;;;;;;7.50;74.66;97162.34;109658;1250;59862;-79
2024/03/27 02:02:45;;;;;;;2.70;1.90;;;;;;;7.62;74.01;97158.02;109640;1250;65635;-78
2024/03/27 02:05:12;;;;;;;1.70;1.60;;;;;;;7.75;72.65;97146.42;109682;1250;61532;-79
2024/03/27 02:07:44;;;;;;;3.10;1.80;;;;;;;7.88;72.13;97141.08;109606;1250;63981;-79
2024/03/27 02:10:11;;;;;;;3.70;2.10;;;;;;;7.98;71.37;97136.48;109622;1250;59758;-78
2024/03/27 02:12:40;;;;;;;3.30;2.60;;;;;;;8.05;70.95;97139.47;109646;1250;59938;-80
2024/03/27 02:15:08;;;;;;;5.00;3.40;;;;;;;8.06;70.92;97149.77;109672;1250;68527;-80
2024/03/27 02:17:34;;;;;;;6.60;3.80;;;;;;;8.06;70.63;97152.67;109625;1250;60163;-79
2024/03/27 02:20:01;;;;;;;6.20;4.10;;;;;;;8.05;70.61;97150.46;109476;1250;64049;-79
2024/03/27 02:22:28;;;;;;;9.20;4.50;;;;;;;8.02;70.22;97136.19;109685;1250;59848;-82
2024/03/27 02:25:07;;;;;;;6.40;4.10;;;;;;;7.98;70.63;97122.92;109733;1250;59842;-79
2024/03/27 02:27:33;;;;;;;5.30;3.70;;;;;;;7.92;70.15;97120.08;109666;1250;67703;-78
2024/03/27 02:29:59;;;;;;;4.70;3.50;;;;;;;7.90;69.89;97120.38;109300;1250;60927;-79
2024/03/27 02:32:26;;;;;;;4.20;3.50;;;;;;;7.90;69.74;97117.77;108834;1250;1002279;-79
2024/03/27 02:34:52;;;;;;;3.60;3.20;;;;;;;7.91;68.89;97115.58;109585;1250;59742;-79
2024/03/27 02:37:18;;;;;;;5.70;3.90;;;;;;;7.96;68.73;97107.52;109528;1250;60150;-80
2024/03/27 02:39:45;;;;;;;6.30;4.10;;;;;;;7.97;68.57;97108.01;109664;1250;59823;-79
2024/03/27 02:42:14;;;;;;;7.80;4.60;;;;;;;7.91;68.61;97106.17;109667;1250;59815;-79
2024/03/27 02:44:40;;;;;;;5.30;3.50;;;;;;;7.82;68.73;97112.27;109623;1250;62881;-78
2024/03/27 02:47:07;;;;;;;6.40;4.40;;;;;;;7.71;68.99;97116.57;109628;1250;59770;-78
2024/03/27 02:49:33;;;;;;;6.50;4.60;;;;;;;7.61;69.07;97118.31;109679;1250;59886;-78
2024/03/27 02:52:00;;;;;;;6.80;4.40;;;;;;;7.51;69.42;97111.70;109640;1250;59775;-78
2024/03/27 02:54:26;;;;;;;7.00;5.10;;;;;;;7.41;69.67;97106.70;109630;1250;60090;-78
2024/03/27 02:56:52;;;;;;;7.90;5.20;;;;;;;7.32;70.01;97098.66;109641;1250;60168;-79
2024/03/27 02:59:19;;;;;;;7.40;5.40;;;;;;;7.22;70.45;97087.96;109648;1250;60075;-78
2024/03/27 03:01:45;;;;;;;8.90;5.30;;;;;;;7.14;70.86;97087.64;109655;1250;60028;-79
2024/03/27 03:04:11;;;;;;;8.80;5.60;;;;;;;7.07;70.87;97093.16;109623;1250;59790;-79
2024/03/27 03:06:39;;;;;;;9.50;7.30;;;;;;;7.03;70.76;97092.42;109660;1250;59843;-78
2024/03/27 03:09:08;;;;;;;8.20;6.70;;;;;;;6.99;70.85;97095.03;109645;1250;62539;-79
2024/03/27 03:11:34;;;;;;;6.40;5.60;;;;;;;6.98;70.82;97097.29;109454;1254;59811;-77
2024/03/27 03:14:01;;;;;;;10.60;4.80;;;;;;;6.94;70.85;97093.52;109468;1254;59877;-79
2024/03/27 03:16:27;;;;;;;6.70;4.70;;;;;;;6.92;70.85;97089.84;109478;1253;59987;-79
2024/03/27 03:18:54;;;;;;;6.80;5.10;;;;;;;6.90;70.82;97084.36;109448;1254;59777;-78
2024/03/27 03:21:20;;;;;;;5.70;4.30;;;;;;;6.87;71.07;97078.57;109413;1253;59993;-80
2024/03/27 03:23:47;;;;;;;8.30;5.20;;;;;;;6.85;70.99;97080.33;109458;1253;59821;-78
2024/03/27 03:26:13;;;;;;;8.10;5.30;;;;;;;6.85;71.08;97078.99;109458;1254;59864;-78
2024/03/27 03:28:40;;;;;;;9.80;4.80;;;;;;;6.81;71.26;97071.82;109446;1253;65705;-79
2024/03/27 03:31:06;;;;;;;5.80;4.70;;;;;;;6.76;71.65;97077.34;109363;1253;60105;-77
2024/03/27 03:33:33;;;;;;;6.80;5.40;;;;;;;6.69;72.00;97075.11;109434;1254;73514;-78
2024/03/27 03:36:00;;;;;;;6.30;5.00;;;;;;;6.64;72.29;97073.24;109467;1253;60154;-80
2024/03/27 03:38:27;;;;;;;10.20;5.80;;;;;;;6.58;72.57;97070.70;109479;1254;60084;-78
2024/03/27 03:41:00;;;;;;;8.80;5.30;;;;;;;6.53;72.89;97070.02;109451;1254;59846;-79
2024/03/27 03:43:26;;;;;;;7.20;5.70;;;;;;;6.48;73.02;97068.54;109586;1250;59906;-78
2024/03/27 03:45:53;;;;;;;6.30;4.70;;;;;;;6.43;73.14;97071.59;109499;1250;59878;-79
2024/03/27 03:48:21;;;;;;;5.90;4.00;;;;;;;6.39;73.29;97072.40;109631;1250;60164;-79
2024/03/27 03:50:48;;;;;;;4.80;3.60;;;;;;;6.36;73.43;97068.77;109637;1250;59918;-78
2024/03/27 03:53:15;;;;;;;5.20;3.40;;;;;;;6.36;73.34;97067.02;109546;1250;67221;-79
2024/03/27 03:55:41;;;;;;;7.10;3.80;;;;;;;6.37;73.28;97069.59;109630;1250;60061;-81
2024/03/27 03:58:08;;;;;;;5.50;3.50;;;;;;;6.38;73.19;97074.11;109684;1250;59806;-79
2024/03/27 04:00:34;;;;;;;4.60;3.20;;;;;;;6.39;73.24;97077.34;109599;1254;60559;-79
2024/03/27 04:03:00;;;;;;;4.30;3.20;;;;;;;6.41;73.10;97075.48;109647;1250;59756;-78
2024/03/27 04:05:27;;;;;;;4.60;3.30;;;;;;;6.44;73.02;97073.25;109609;1250;60354;-79
2024/03/27 04:07:53;;;;;;;4.60;3.30;;;;;;;6.45;72.92;97066.88;109644;1250;59905;-80
2024/03/27 04:10:19;;;;;;;4.80;3.30;;;;;;;6.44;72.92;97064.27;109632;1250;60171;-78
2024/03/27 04:12:46;;;;;;;5.30;3.60;;;;;;;6.45;72.93;97064.05;109667;1250;60061;-78
2024/03/27 04:15:13;;;;;;;4.30;3.30;;;;;;;6.45;72.83;97064.36;109644;1250;59832;-81
2024/03/27 04:17:40;;;;;;;3.40;2.40;;;;;;;6.47;72.48;97066.31;109608;1250;60305;-78
2024/03/27 04:20:13;;;;;;;3.20;2.30;;;;;;;6.51;72.41;97062.41;109614;1250;60279;-79
2024/03/27 04:22:39;;;;;;;3.70;2.80;;;;;;;6.53;72.38;97064.93;109628;1250;63741;-80
2024/03/27 04:25:06;;;;;;;3.70;2.80;;;;;;;6.54;72.03;97067.45;109647;1250;59817;-78
2024/03/27 04:27:32;;;;;;;3.10;2.70;;;;;;;6.56;72.06;97058.86;109643;1250;59838;-79
2024/03/27 04:29:58;;;;;;;4.30;2.90;;;;;;;6.57;72.15;97059.67;109672;1250;60007;-78
2024/03/27 04:32:25;;;;;;;4.30;2.70;;;;;;;6.57;72.16;97063.33;109678;1250;60000;-79
2024/03/27 04:34:51;;;;;;;3.80;2.80;;;;;;;6.59;72.13;97065.29;109644;1250;63895;-79
2024/03/27 04:37:18;;;;;;;3.30;3.00;;;;;;;6.58;72.28;97057.98;109597;1251;59748;-79
2024/03/27 04:39:44;;;;;;;4.90;3.30;;;;;;;6.56;72.40;97062.53;109635;1250;59888;-80
2024/03/27 04:42:10;;;;;;;6.80;4.00;;;;;;;6.55;72.46;97066.02;109611;1255;60224;-79
2024/03/27 04:44:38;;;;;;;5.20;3.90;;;;;;;6.53;72.51;97065.80;109673;1250;60109;-80
2024/03/27 04:47:04;;;;;;;6.50;3.70;;;;;;;6.53;72.54;97064.09;109535;1250;63751;-80
2024/03/27 04:49:31;;;;;;;5.30;4.30;;;;;;;6.50;72.70;97065.52;109627;1251;60059;-79
2024/03/27 04:51:57;;;;;;;5.10;4.30;;;;;;;6.48;72.84;97060.79;109646;1250;60436;-78
2024/03/27 04:54:24;;;;;;;7.60;4.40;;;;;;;6.44;73.00;97062.67;109647;1250;60328;-78
2024/03/27 04:56:50;;;;;;;7.00;4.30;;;;;;;6.42;72.98;97063.91;109643;1250;59837;-78
2024/03/27 04:59:17;;;;;;;3.50;2.90;;;;;;;6.43;72.88;97053.06;109622;1250;59828;-78
2024/03/27 05:01:43;;;;;;;6.20;3.50;;;;;;;6.47;72.82;97055.58;109520;1250;59833;-79
2024/03/27 05:04:09;;;;;;;4.10;3.00;;;;;;;6.52;72.73;97062.16;109608;1251;60001;-79
2024/03/27 05:06:41;;;;;;;6.80;3.10;;;;;;;6.58;72.56;97053.75;109691;1251;60066;-78
2024/03/27 05:09:10;;;;;;;6.50;3.40;;;;;;;6.64;72.65;97044.48;109645;1250;59859;-78
2024/03/27 05:11:37;;;;;;;5.20;3.10;;;;;;;6.68;72.63;97041.27;109622;1251;62890;-77
2024/03/27 05:14:05;;;;;;;4.80;3.40;;;;;;;6.72;72.68;97037.99;109603;1251;59819;-77
2024/03/27 05:16:32;;;;;;;5.60;3.50;;;;;;;6.76;72.81;97039.96;109637;1250;59874;-78
2024/03/27 05:18:59;;;;;;;4.20;2.80;;;;;;;6.78;72.86;97046.10;109583;1254;65781;-78
2024/03/27 05:21:27;;;;;;;5.40;3.80;;;;;;;6.84;72.74;97053.61;109669;1251;59948;-79
2024/03/27 05:23:53;;;;;;;5.40;3.40;;;;;;;6.90;72.65;97052.52;109647;1251;65327;-78
2024/03/27 05:26:20;;;;;;;5.10;3.40;;;;;;;7.01;72.32;97050.39;109614;1251;59791;-79
2024/03/27 05:28:46;;;;;;;6.30;3.70;;;;;;;7.21;72.02;97050.66;109616;1251;59860;-79
2024/03/27 05:31:12;;;;;;;5.30;3.50;;;;;;;7.42;71.83;97053.09;109686;1251;59819;-79
2024/03/27 05:33:39;;;;;;;5.00;3.20;;;;;;;7.61;71.57;97062.65;109644;1250;59832;-80
2024/03/27 05:36:05;;;;;;;7.20;3.80;;;;;;;7.84;71.10;97069.87;109634;1250;59794;-79
2024/03/27 05:38:31;;;;;;;5.30;3.60;;;;;;;8.12;70.83;97068.98;109599;1251;59849;-78
2024/03/27 05:40:58;;;;;;;4.60;3.60;;;;;;;8.41;70.33;97067.34;109598;1251;59803;-78
2024/03/27 05:43:24;;;;;;;5.50;3.50;;;;;;;8.61;70.21;97063.42;109633;1254;59852;-80
2024/03/27 05:45:52;;;;;;;4.00;3.50;;;;;;;8.86;70.35;97054.48;109645;1251;60027;-79
2024/03/27 05:48:19;;;;;;;5.10;3.90;;;;;;;9.13;70.12;97053.21;109630;1251;62510;-74
2024/03/27 05:50:46;;;;;;;7.50;4.50;;;;;;;9.38;69.79;97045.92;109594;1250;59751;-79
2024/03/27 05:53:12;;;;;;;6.60;4.90;;;;;;;9.65;69.36;97041.30;109640;1250;59675;-80
2024/03/27 05:55:39;;;;;;;7.00;4.30;;;;;;;9.90;69.14;97041.96;109627;1251;66871;-78
2024/03/27 05:58:05;;;;;;;6.10;4.10;;;;;;;10.12;68.88;97041.41;109646;1251;59892;-79
2024/03/27 06:00:33;;;;;;;5.90;4.20;;;;;;;10.36;68.88;97036.10;109618;1251;59752;-79
2024/03/27 06:02:59;;;;;;;6.40;3.70;;;;;;;10.53;69.10;97032.65;109620;1254;59783;-80
2024/03/27 06:05:26;;;;;;;5.40;4.00;;;;;;;10.59;69.53;97033.84;109676;1251;59853;-79
2024/03/27 06:07:52;;;;;;;4.80;3.80;;;;;;;10.74;68.80;97035.02;109675;1250;59762;-79
2024/03/27 06:10:18;;;;;;;3.10;2.70;;;;;;;10.94;68.26;97037.55;109374;1251;59856;-78
2024/03/27 06:12:45;;;;;;;5.40;3.90;;;;;;;11.18;67.31;97035.74;109623;1250;60061;-78
2024/03/27 06:15:11;;;;;;;4.90;3.90;;;;;;;11.45;67.45;97037.52;109621;1251;59933;-78
2024/03/27 06:17:38;;;;;;;5.60;3.60;;;;;;;11.70;66.98;97029.73;109612;1250;59878;-79
2024/03/27 06:20:07;;;;;;;5.20;3.90;;;;;;;11.93;66.65;97026.57;109606;1250;59841;-81
2024/03/27 06:22:34;;;;;;;5.80;3.40;;;;;;;12.13;66.29;97023.40;109512;1251;59891;-80
2024/03/27 06:25:00;;;;;;;5.80;4.00;;;;;;;12.27;65.86;97024.02;109618;1250;59848;-78
2024/03/27 06:27:27;;;;;;;7.10;3.80;;;;;;;12.35;65.00;97024.14;109633;1250;59737;-80
2024/03/27 06:29:53;;;;;;;5.50;3.10;;;;;;;12.33;64.88;97026.67;109602;1251;60168;-78
2024/03/27 06:32:19;;;;;;;4.30;3.70;;;;;;;12.23;64.38;97027.37;109621;1250;59719;-81
2024/03/27 06:34:45;;;;;;;3.90;3.00;;;;;;;12.15;64.05;97023.96;109628;1250;59824;-80
2024/03/27 06:37:12;;;;;;;4.80;4.20;;;;;;;12.02;63.14;97025.09;109612;1251;59783;-80
2024/03/27 06:39:38;;;;;;;5.00;4.00;;;;;;;11.91;63.48;97035.85;109575;1251;59935;-80
2024/03/27 06:42:04;;;;;;;7.60;4.60;;;;;;;11.90;64.08;97034.20;109385;1250;59851;-76
2024/03/27 06:44:31;;;;;;;4.30;3.90;;;;;;;11.85;62.98;97031.80;109612;1251;59727;-79
2024/03/27 06:46:57;;;;;;;6.50;4.20;;;;;;;11.75;63.16;97032.66;109582;1251;59717;-77
2024/03/27 06:49:32;;;;;;;5.30;3.60;;;;;;;11.74;64.19;97034.58;109570;1251;59855;-80
2024/03/27 06:51:59;;;;;;;5.90;4.00;;;;;;;11.77;64.51;97034.34;109641;1251;60108;-80
2024/03/27 06:54:26;;;;;;;6.20;4.00;;;;;;;11.84;65.25;97031.56;109646;1251;59827;-80
2024/03/27 06:56:52;;;;;;;8.40;3.90;;;;;;;11.93;65.60;97028.52;109572;1251;66897;-81
2024/03/27 06:59:19;;;;;;;5.80;2.80;;;;;;;12.00;65.60;97019.58;109616;1251;59758;-79
2024/03/27 07:01:45;;;;;;;8.20;4.10;;;;;;;12.10;65.86;97017.97;109590;1251;59886;-80
2024/03/27 07:04:11;;;;;;;5.30;3.80;;;;;;;12.19;65.85;97018.65;109631;1250;59772;-79
2024/03/27 07:06:38;;;;;;;9.10;3.80;;;;;;;12.24;66.00;97019.23;109677;1250;60157;-78
2024/03/27 07:09:04;;;;;;;5.20;3.30;;;;;;;12.28;65.99;97020.55;109636;1251;59958;-79
2024/03/27 07:11:30;;;;;;;4.40;3.30;;;;;;;12.31;66.12;97024.70;109628;1251;59819;-79
2024/03/27 07:13:57;;;;;;;5.30;3.40;;;;;;;12.38;66.52;97025.55;109454;1251;59801;-79
2024/03/27 07:16:23;;;;;;;6.40;3.20;;;;;;;12.44;66.22;97024.61;109598;1251;59987;-81
2024/03/27 07:18:49;;;;;;;5.90;3.70;;;;;;;12.47;66.14;97023.20;109645;1251;59715;-80
2024/03/27 07:21:16;;;;;;;4.30;2.80;;;;;;;12.49;66.42;97024.02;109621;1254;59900;-80
2024/03/27 07:23:42;;;;;;;5.60;3.60;;;;;;;12.55;65.91;97027.14;109664;1250;59788;-80
2024/03/27 07:26:08;;;;;;;5.10;3.80;;;;;;;12.59;65.88;97023.02;109607;1251;59862;-79
2024/03/27 07:28:35;;;;;;;7.50;4.20;;;;;;;12.65;65.74;97016.80;109630;1251;59772;-78
2024/03/27 07:31:01;;;;;;;6.20;3.70;;;;;;;12.71;66.15;97012.77;109591;1251;59848;-81
2024/03/27 07:33:28;;;;;;;4.40;3.20;;;;;;;12.79;66.65;97011.05;109659;1250;60182;-79
2024/03/27 07:35:54;;;;;;;4.60;3.50;;;;;;;12.89;67.10;97011.80;109659;1251;59968;-79
2024/03/27 07:38:20;;;;;;;3.90;3.50;;;;;;;13.01;67.78;97009.39;109597;1250;60021;-80
2024/03/27 07:40:47;;;;;;;4.90;2.30;;;;;;;13.15;69.32;97011.73;109564;1251;59864;-79
2024/03/27 07:43:13;;;;;;;3.40;2.10;;;;;;;13.37;70.73;97008.10;109659;1250;59688;-80
2024/03/27 07:45:40;;;;;;;4.10;1.90;;;;;;;13.62;71.69;97005.05;109644;1251;59783;-81
2024/03/27 07:48:08;;;;;;;5.10;2.30;;;;;;;13.84;71.96;97002.09;109656;1250;59821;-80
2024/03/27 07:50:38;;;;;;;3.70;2.00;;;;;;;14.01;72.08;96997.27;109334;1250;59815;-79
2024/03/27 07:53:04;;;;;;;6.70;2.20;;;;;;;14.16;72.23;96987.04;109556;1251;59753;-80
2024/03/27 07:55:30;;;;;;;3.30;2.20;;;;;;;14.29;72.46;96984.59;109638;1251;60063;-80
2024/03/27 07:57:56;;;;;;;4.20;1.90;;;;;;;14.38;72.50;96986.98;109598;1251;59730;-76
2024/03/27 08:00:23;;;;;;;4.30;1.90;;;;;;;14.44;72.63;96985.07;109635;1250;59900;-81
2024/03/27 08:02:49;;;;;;;5.60;1.90;;;;;;;14.52;72.67;96982.73;109626;1251;59754;-81
2024/03/27 08:05:16;;;;;;;3.90;2.20;;;;;;;14.58;72.42;96979.20;109614;1251;59765;-81
2024/03/27 08:07:42;;;;;;;3.10;2.10;;;;;;;14.65;72.80;96975.98;109610;1250;59751;-79
2024/03/27 08:10:09;;;;;;;3.80;2.00;;;;;;;14.74;72.68;96975.70;109356;1250;59942;-77
2024/03/27 08:12:36;;;;;;;3.10;1.80;;;;;;;14.82;72.70;96975.61;109619;1251;59848;-80
2024/03/27 08:15:03;;;;;;;3.00;1.90;;;;;;;14.90;72.70;96980.03;109628;1250;64060;-78
2024/03/27 08:17:29;;;;;;;3.00;2.10;;;;;;;15.00;72.48;96979.73;109590;1251;59791;-78
2024/03/27 08:19:55;;;;;;;2.40;2.00;;;;;;;15.07;72.72;96981.64;109648;1251;59908;-80
2024/03/27 08:22:22;;;;;;;4.70;1.90;;;;;;;15.17;72.85;96987.12;109629;1251;60260;-78
2024/03/27 08:24:51;;;;;;;4.10;2.10;;;;;;;15.23;72.22;96989.49;109627;1251;60291;-80
2024/03/27 08:27:17;;;;;;;2.80;1.80;;;;;;;15.27;72.15;96997.86;109613;1251;62584;-79
2024/03/27 08:29:44;;;;;;;3.10;1.70;;;;;;;15.35;72.26;97004.28;109610;1251;59944;-79
2024/03/27 08:32:10;;;;;;;2.80;2.10;;;;;;;15.45;72.41;97009.13;109595;1251;59905;-79
2024/03/27 08:34:37;;;;;;;2.50;1.80;;;;;;;15.55;72.68;97003.73;109613;1250;59833;-81
2024/03/27 08:37:03;;;;;;;2.70;2.00;;;;;;;15.67;72.66;97007.05;109644;1251;59804;-82
2024/03/27 08:39:30;;;;;;;2.00;1.50;;;;;;;15.76;72.37;97007.83;109610;1250;60057;-78
2024/03/27 08:41:56;;;;;;;2.10;1.90;;;;;;;15.81;71.08;97009.63;109622;1250;59739;-78
2024/03/27 08:44:23;;;;;;;2.40;1.80;;;;;;;15.80;70.81;97011.33;109619;1250;59839;-76
2024/03/27 08:46:49;;;;;;;2.90;1.90;;;;;;;15.83;71.31;97015.13;109576;1250;59926;-74
2024/03/27 08:49:16;;;;;;;2.40;2.20;;;;;;;15.94;71.90;97017.67;109604;1251;59808;-75
2024/03/27 08:51:42;;;;;;;4.00;2.20;;;;;;;16.08;72.00;97015.14;109648;1250;59824;-74
2024/03/27 08:54:12;;;;;;;2.70;2.20;;;;;;;16.18;72.02;97010.11;109625;1250;59850;-74
2024/03/27 08:56:39;;;;;;;3.10;1.80;;;;;;;16.26;71.29;97004.40;109660;1250;59993;-75
2024/03/27 08:59:06;;;;;;;2.50;2.00;;;;;;;16.30;71.12;97002.95;109657;1250;65559;-74
2024/03/27 09:01:32;;;;;;;3.00;1.80;;;;;;;16.37;71.21;97002.85;109616;1251;59757;-75
2024/03/27 09:03:58;;;;;;;3.00;1.80;;;;;;;16.42;71.16;97008.99;109245;1250;59860;-74
2024/03/27 09:06:25;;;;;;;3.40;1.60;;;;;;;16.48;70.77;97009.02;109604;1251;59890;-76
2024/03/27 09:08:51;;;;;;;2.20;1.50;;;;;;;16.51;70.10;97005.13;109637;1250;59820;-74
2024/03/27 09:11:19;;;;;;;2.70;1.50;;;;;;;16.50;69.91;96998.54;109409;1251;60274;-73
2024/03/27 09:13:45;;;;;;;3.70;1.80;;;;;;;16.50;70.09;97002.30;109607;1250;60132;-74
2024/03/27 09:16:12;;;;;;;4.50;1.70;;;;;;;16.53;70.29;96998.95;109597;1250;59825;-74
2024/03/27 09:18:38;;;;;;;9.90;2.10;;;;;;;16.49;69.67;97000.48;109646;1250;59796;-73
2024/03/27 09:21:04;;;;;;;1.40;1.30;;;;;;;16.32;68.90;96996.27;109645;1250;60168;-74
2024/03/27 09:23:32;;;;;;;3.00;1.40;;;;;;;16.21;68.87;96992.98;109660;1250;59937;-75
2024/03/27 09:26:01;;;;;;;9.80;2.60;;;;;;;16.23;69.36;96991.31;109596;1254;59969;-74
2024/03/27 09:28:28;;;;;;;7.60;1.80;;;;;;;16.30;69.66;96993.64;109637;1250;63842;-74
2024/03/27 09:30:55;;;;;;;4.30;1.70;;;;;;;16.46;70.36;96992.79;109625;1250;59761;-75
2024/03/27 09:33:23;;;;;;;3.90;1.60;;;;;;;16.62;69.35;96983.12;109629;1250;59852;-75
2024/03/27 09:35:50;;;;;;;7.10;2.00;;;;;;;16.65;68.13;96982.70;109623;1250;66899;-74
2024/03/27 09:38:17;;;;;;;2.70;1.30;;;;;;;16.69;68.59;96989.86;109666;1250;60248;-75
2024/03/27 09:40:46;;;;;;;1.50;1.20;;;;;;;16.73;67.40;96981.79;109597;1250;64002;-74
2024/03/27 09:43:13;;;;;;;2.40;1.70;;;;;;;16.73;67.72;96987.26;109605;1250;59735;-74
2024/03/27 09:45:43;;;;;;;1.80;1.40;;;;;;;16.74;67.53;96984.13;109601;1250;59779;-74
2024/03/27 09:48:10;;;;;;;2.90;2.00;;;;;;;16.64;67.37;96983.31;109694;1250;67264;-74
2024/03/27 09:50:38;;;;;;;1.60;1.40;;;;;;;16.72;68.50;96979.80;109566;1250;59852;-75
2024/03/27 09:53:06;;;;;;;4.50;1.60;;;;;;;16.93;68.86;96977.88;109579;1250;65246;-75
2024/03/27 09:55:35;;;;;;;10.60;2.20;;;;;;;17.10;69.00;96979.95;109602;1250;59749;-74
2024/03/27 09:58:05;;;;;;;4.60;1.90;;;;;;;17.24;69.08;96985.00;109657;1250;61475;-75
2024/03/27 10:00:37;;;;;;;5.00;1.90;;;;;;;17.35;68.15;96984.67;109635;1250;66906;-74
2024/03/27 10:03:04;;;;;;;3.60;2.00;;;;;;;17.48;68.84;96985.93;109527;1250;133862;-74
2024/03/27 10:05:32;;;;;;;3.70;1.40;;;;;;;17.62;68.62;96990.67;109628;1250;64096;-76
2024/03/27 10:07:59;;;;;;;4.30;1.80;;;;;;;17.70;68.07;96989.16;109639;1250;60032;-75
2024/03/27 10:10:26;;;;;;;2.00;1.20;;;;;;;17.75;67.22;96984.05;109640;1250;59826;-75
2024/03/27 10:12:53;;;;;;;2.90;1.50;;;;;;;17.74;66.22;96982.59;109602;1250;65616;-74
2024/03/27 10:15:19;;;;;;;3.20;1.60;;;;;;;17.78;67.22;96987.48;109592;1250;59834;-75
2024/03/27 10:17:45;;;;;;;2.90;1.60;;;;;;;17.85;67.08;96987.17;109648;1250;59813;-74
2024/03/27 10:20:12;;;;;;;2.30;1.80;;;;;;;17.90;67.02;96982.31;109627;1250;59776;-74
2024/03/27 10:22:39;;;;;;;2.80;1.40;;;;;;;17.95;66.69;96985.61;109612;1251;59832;-74
2024/03/27 10:25:07;;;;;;;2.00;1.60;;;;;;;17.99;66.72;96986.05;109664;1250;60199;-75
2024/03/27 10:27:37;;;;;;;3.30;1.40;;;;;;;18.03;66.71;96985.77;109643;1250;61700;-75
2024/03/27 10:30:07;;;;;;;3.50;2.00;;;;;;;18.06;66.86;96988.28;109343;1250;62505;-76
2024/03/27 10:32:33;;;;;;;1.90;1.70;;;;;;;18.08;66.36;96985.22;109566;1250;59829;-75
2024/03/27 10:35:00;;;;;;;2.20;1.80;;;;;;;18.12;66.27;96983.17;109583;1250;59970;-73
2024/03/27 10:37:27;;;;;;;2.60;1.60;;;;;;;18.15;66.01;96981.61;109638;1250;59874;-75
2024/03/27 10:39:58;;;;;;;4.30;1.70;;;;;;;18.19;65.88;96983.21;109625;1250;61067;-73
2024/03/27 10:42:26;;;;;;;5.00;1.80;;;;;;;18.27;66.04;96988.30;109654;1250;64899;-74
2024/03/27 10:44:57;;;;;;;2.60;1.40;;;;;;;18.34;66.19;96991.03;109557;1250;59836;-75
2024/03/27 10:47:31;;;;;;;1.90;1.70;;;;;;;18.40;65.79;96988.45;109594;1250;59770;-75
2024/03/27 10:49:59;;;;;;;2.90;1.80;;;;;;;18.44;65.54;96982.70;109655;1250;65513;-75
2024/03/27 10:52:26;;;;;;;3.10;1.80;;;;;;;18.48;65.51;96981.99;109424;1251;59890;-74
2024/03/27 10:54:54;;;;;;;3.10;2.00;;;;;;;18.53;65.35;96982.48;109622;1250;62956;-74
2024/03/27 10:57:21;;;;;;;3.90;2.30;;;;;;;18.56;65.12;96986.59;109534;1250;59878;-74
2024/03/27 10:59:49;;;;;;;2.20;1.90;;;;;;;18.60;65.25;96990.17;109671;1250;59764;-75
2024/03/27 11:02:18;;;;;;;2.20;1.80;;;;;;;18.64;64.98;96986.66;109623;1250;66959;-74
2024/03/27 11:05:04;;;;;;;2.30;1.60;;;;;;;18.69;64.91;96983.23;109570;1250;60091;-75
2024/03/27 11:07:34;;;;;;;3.00;1.40;;;;;;;18.73;65.23;96987.14;109652;1250;64536;-75
2024/03/27 11:10:00;;;;;;;3.10;1.50;;;;;;;18.77;65.00;96985.20;109600;1250;60226;-75
2024/03/27 11:12:27;;;;;;;3.30;1.60;;;;;;;18.78;64.73;96982.20;109613;1250;59868;-76
2024/03/27 11:14:53;;;;;;;1.60;1.40;;;;;;;18.77;64.30;96976.72;109591;1250;67203;-75
2024/03/27 11:17:27;;;;;;;4.80;1.80;;;;;;;18.78;64.75;96972.98;109593;1250;59999;-74
2024/03/27 11:20:00;;;;;;;2.80;1.60;;;;;;;18.77;64.81;96968.45;109597;1250;62634;-75
2024/03/27 11:22:27;;;;;;;5.40;1.90;;;;;;;18.82;65.11;96963.36;109601;1250;59738;-75
2024/03/27 11:24:53;;;;;;;4.10;1.50;;;;;;;18.90;65.09;96957.98;109586;1250;59811;-75